createdAt,value
2016-12-19T00:01:04.965Z,0
2016-12-19T00:02:13.968Z,0
2016-12-19T00:03:22.649Z,0
2016-12-19T00:04:32.145Z,0
2016-12-19T00:05:41.141Z,0
2016-12-19T00:06:50.500Z,0
2016-12-19T00:07:59.807Z,0
2016-12-19T00:09:08.500Z,0
2016-12-19T00:10:18.251Z,0
2016-12-19T00:11:27.252Z,0
2016-12-19T00:12:36.555Z,0
2016-12-19T00:13:45.235Z,0
2016-12-19T00:14:54.533Z,0
2016-12-19T00:16:03.381Z,0
2016-12-19T00:17:12.684Z,0
2016-12-19T00:18:21.374Z,0
2016-12-19T00:19:30.360Z,0
2016-12-19T00:20:39.351Z,0
2016-12-19T00:21:48.386Z,0
2016-12-19T00:22:57.995Z,0
2016-12-19T00:24:06.670Z,0
2016-12-19T00:25:15.656Z,0
2016-12-19T00:26:24.663Z,0
2016-12-19T00:27:34.030Z,0
2016-12-19T00:28:42.759Z,0
2016-12-19T00:29:51.437Z,0
2016-12-19T00:31:00.120Z,0
2016-12-19T00:32:09.112Z,0
2016-12-19T00:33:17.820Z,0
2016-12-19T00:34:27.117Z,0
2016-12-19T00:35:35.795Z,0
2016-12-19T00:36:44.788Z,0
2016-12-19T00:37:53.473Z,0
2016-12-19T00:39:02.881Z,0
2016-12-19T00:40:11.885Z,0
2016-12-19T00:41:21.794Z,0
2016-12-19T00:42:31.409Z,0
2016-12-19T00:43:41.028Z,0
2016-12-19T00:44:50.167Z,0
2016-12-19T00:45:59.468Z,0
2016-12-19T00:47:08.770Z,0
2016-12-19T00:48:18.393Z,0
2016-12-19T00:49:27.405Z,0
2016-12-19T00:50:36.705Z,0
2016-12-19T00:51:45.693Z,0
2016-12-19T00:52:54.682Z,0
2016-12-19T00:54:04.007Z,0
2016-12-19T00:55:13.312Z,0
2016-12-19T00:56:22.025Z,0
2016-12-19T00:57:31.018Z,0
2016-12-19T00:58:40.322Z,0
2016-12-19T00:59:49.319Z,0
2016-12-19T01:00:58.028Z,0
2016-12-19T01:02:07.419Z,0
2016-12-19T01:03:16.724Z,0
2016-12-19T01:04:26.022Z,0
2016-12-19T01:05:35.047Z,0
2016-12-19T01:06:44.039Z,0
2016-12-19T01:07:52.721Z,0
2016-12-19T01:09:01.721Z,0
2016-12-19T01:10:10.724Z,0
2016-12-19T01:11:19.716Z,0
2016-12-19T01:12:28.395Z,0
2016-12-19T01:13:37.700Z,0
2016-12-19T01:14:46.700Z,0
2016-12-19T01:15:56.004Z,0
2016-12-19T01:17:05.615Z,0
2016-12-19T01:18:14.308Z,0
2016-12-19T01:19:23.630Z,0
2016-12-19T01:20:32.347Z,0
2016-12-19T01:21:41.647Z,0
2016-12-19T01:22:50.335Z,0
2016-12-19T01:23:59.638Z,0
2016-12-19T01:25:09.250Z,0
2016-12-19T01:26:17.941Z,0
2016-12-19T01:27:26.640Z,0
2016-12-19T01:28:35.338Z,0
2016-12-19T01:29:44.634Z,0
2016-12-19T01:30:53.622Z,0
2016-12-19T01:32:02.614Z,0
2016-12-19T01:33:11.920Z,0
2016-12-19T01:34:20.919Z,0
2016-12-19T01:35:29.901Z,0
2016-12-19T01:36:38.771Z,0
2016-12-19T01:37:48.063Z,0
2016-12-19T01:38:57.057Z,0
2016-12-19T01:40:06.055Z,0
2016-12-19T01:41:15.054Z,0
2016-12-19T01:42:24.368Z,0
2016-12-19T01:43:33.667Z,0
2016-12-19T01:44:42.374Z,0
2016-12-19T01:45:51.706Z,0
2016-12-19T01:47:00.389Z,0
2016-12-19T01:48:09.077Z,0
2016-12-19T01:49:18.385Z,0
2016-12-19T01:50:27.071Z,0
2016-12-19T01:51:36.367Z,0
2016-12-19T01:52:45.971Z,0
2016-12-19T01:53:55.314Z,0
2016-12-19T01:55:04.652Z,0
2016-12-19T01:56:13.336Z,0
2016-12-19T01:57:22.021Z,0
2016-12-19T01:58:31.312Z,0
2016-12-19T01:59:40.699Z,0
2016-12-19T02:00:50.000Z,0
2016-12-19T02:01:58.692Z,0
2016-12-19T02:03:07.682Z,0
2016-12-19T02:04:16.408Z,0
2016-12-19T02:05:25.412Z,0
2016-12-19T02:06:34.126Z,0
2016-12-19T02:07:43.428Z,0
2016-12-19T02:08:52.455Z,0
2016-12-19T02:10:01.141Z,0
2016-12-19T02:11:10.131Z,0
2016-12-19T02:12:18.819Z,0
2016-12-19T02:13:27.506Z,0
2016-12-19T02:14:37.112Z,0
2016-12-19T02:15:46.126Z,0
2016-12-19T02:16:54.966Z,0
2016-12-19T02:18:03.646Z,0
2016-12-19T02:19:12.338Z,0
2016-12-19T02:20:21.023Z,0
2016-12-19T02:21:30.327Z,0
2016-12-19T02:22:39.674Z,0
2016-12-19T02:23:48.666Z,0
2016-12-19T02:24:57.653Z,0
2016-12-19T02:26:06.655Z,0
2016-12-19T02:27:15.952Z,0
2016-12-19T02:28:25.559Z,0
2016-12-19T02:29:34.241Z,0
2016-12-19T02:30:43.235Z,0
2016-12-19T02:31:52.231Z,0
2016-12-19T02:33:01.225Z,0
2016-12-19T02:34:09.917Z,0
2016-12-19T02:35:18.599Z,0
2016-12-19T02:36:27.643Z,0
2016-12-19T02:37:36.645Z,0
2016-12-19T02:38:45.333Z,0
2016-12-19T02:39:54.329Z,0
2016-12-19T02:41:03.016Z,0
2016-12-19T02:42:12.341Z,0
2016-12-19T02:43:21.331Z,0
2016-12-19T02:44:30.322Z,0
2016-12-19T02:45:39.323Z,0
2016-12-19T02:46:48.337Z,0
2016-12-19T02:47:57.335Z,0
2016-12-19T02:49:06.954Z,0
2016-12-19T02:50:15.639Z,0
2016-12-19T02:51:25.044Z,0
2016-12-19T02:52:33.757Z,0
2016-12-19T02:53:42.754Z,0
2016-12-19T02:54:51.746Z,0
2016-12-19T02:56:00.427Z,0
2016-12-19T02:57:09.430Z,0
2016-12-19T02:58:18.413Z,0
2016-12-19T02:59:28.012Z,0
2016-12-19T03:00:36.698Z,0
2016-12-19T03:01:45.718Z,0
2016-12-19T03:02:54.738Z,0
2016-12-19T03:04:03.733Z,0
2016-12-19T03:05:12.722Z,0
2016-12-19T03:06:21.406Z,0
2016-12-19T03:07:30.096Z,0
2016-12-19T03:08:38.938Z,0
2016-12-19T03:09:47.629Z,0
2016-12-19T03:10:56.612Z,0
2016-12-19T03:12:05.297Z,0
2016-12-19T03:13:14.289Z,0
2016-12-19T03:14:23.122Z,0
2016-12-19T03:15:32.422Z,0
2016-12-19T03:16:41.411Z,0
2016-12-19T03:17:50.103Z,0
2016-12-19T03:18:59.097Z,0
2016-12-19T03:20:07.779Z,0
2016-12-19T03:21:16.776Z,0
2016-12-19T03:22:25.783Z,0
2016-12-19T03:23:34.475Z,0
2016-12-19T03:24:43.164Z,0
2016-12-19T03:25:52.566Z,0
2016-12-19T03:27:01.860Z,0
2016-12-19T03:28:10.855Z,0
2016-12-19T03:29:19.551Z,0
2016-12-19T03:30:28.249Z,0
2016-12-19T03:31:37.698Z,0
2016-12-19T03:32:46.391Z,0
2016-12-19T03:33:55.080Z,0
2016-12-19T03:35:04.080Z,0
2016-12-19T03:36:13.692Z,0
2016-12-19T03:37:22.998Z,0
2016-12-19T03:38:32.029Z,0
2016-12-19T03:39:41.326Z,0
2016-12-19T03:40:50.622Z,0
2016-12-19T03:41:59.302Z,0
2016-12-19T03:43:08.293Z,0
2016-12-19T03:44:16.981Z,0
2016-12-19T03:45:26.285Z,0
2016-12-19T03:46:35.346Z,0
2016-12-19T03:47:44.363Z,0
2016-12-19T03:48:54.075Z,0
2016-12-19T03:50:03.688Z,0
2016-12-19T03:51:12.384Z,0
2016-12-19T03:52:21.985Z,0
2016-12-19T03:53:31.028Z,0
2016-12-19T03:54:40.130Z,0
2016-12-19T03:55:48.815Z,0
2016-12-19T03:56:57.841Z,0
2016-12-19T03:58:07.452Z,0
2016-12-19T03:59:16.787Z,0
2016-12-19T04:00:25.920Z,0
2016-12-19T04:01:35.247Z,0
2016-12-19T04:02:44.241Z,0
2016-12-19T04:03:53.252Z,0
2016-12-19T04:05:02.249Z,0
2016-12-19T04:06:11.243Z,0
2016-12-19T04:07:20.543Z,0
2016-12-19T04:08:29.866Z,0
2016-12-19T04:09:39.163Z,0
2016-12-19T04:10:48.158Z,0
2016-12-19T04:11:57.450Z,0
2016-12-19T04:13:06.449Z,0
2016-12-19T04:14:15.466Z,0
2016-12-19T04:15:25.072Z,0
2016-12-19T04:16:34.994Z,0
2016-12-19T04:17:44.305Z,0
2016-12-19T04:18:53.304Z,0
2016-12-19T04:20:01.997Z,0
2016-12-19T04:21:10.990Z,0
2016-12-19T04:22:19.679Z,0
2016-12-19T04:23:28.885Z,0
2016-12-19T04:24:37.874Z,0
2016-12-19T04:25:46.892Z,0
2016-12-19T04:26:55.896Z,0
2016-12-19T04:28:04.886Z,0
2016-12-19T04:29:14.049Z,0
2016-12-19T04:30:23.343Z,0
2016-12-19T04:31:32.026Z,0
2016-12-19T04:32:40.711Z,0
2016-12-19T04:33:49.382Z,0
2016-12-19T04:34:58.480Z,0
2016-12-19T04:36:07.788Z,0
2016-12-19T04:37:16.473Z,0
2016-12-19T04:38:25.775Z,0
2016-12-19T04:39:34.495Z,0
2016-12-19T04:40:43.489Z,0
2016-12-19T04:41:52.176Z,0
2016-12-19T04:43:01.170Z,0
2016-12-19T04:44:10.158Z,0
2016-12-19T04:45:19.191Z,0
2016-12-19T04:46:28.214Z,0
2016-12-19T04:47:36.904Z,0
2016-12-19T04:48:45.905Z,0
2016-12-19T04:49:55.235Z,0
2016-12-19T04:51:03.940Z,0
2016-12-19T04:52:13.235Z,0
2016-12-19T04:53:22.549Z,0
2016-12-19T04:54:31.549Z,0
2016-12-19T04:55:40.539Z,0
2016-12-19T04:56:49.870Z,0
2016-12-19T04:57:59.004Z,0
2016-12-19T04:59:08.309Z,0
2016-12-19T05:00:17.622Z,0
2016-12-19T05:01:26.915Z,0
2016-12-19T05:02:35.921Z,0
2016-12-19T05:03:44.911Z,0
2016-12-19T05:04:53.919Z,0
2016-12-19T05:06:03.276Z,0
2016-12-19T05:07:12.581Z,0
2016-12-19T05:08:21.272Z,0
2016-12-19T05:09:30.411Z,0
2016-12-19T05:10:39.396Z,0
2016-12-19T05:11:48.086Z,0
2016-12-19T05:12:57.078Z,0
2016-12-19T05:14:06.086Z,0
2016-12-19T05:15:15.106Z,0
2016-12-19T05:16:23.822Z,0
2016-12-19T05:17:33.155Z,0
2016-12-19T05:18:42.459Z,0
2016-12-19T05:19:51.450Z,0
2016-12-19T05:21:00.150Z,0
2016-12-19T05:22:09.469Z,0
2016-12-19T05:23:18.467Z,0
2016-12-19T05:24:27.153Z,0
2016-12-19T05:25:36.148Z,0
2016-12-19T05:26:45.137Z,0
2016-12-19T05:27:54.438Z,0
2016-12-19T05:29:03.744Z,0
2016-12-19T05:30:13.667Z,0
2016-12-19T05:31:22.665Z,0
2016-12-19T05:32:31.965Z,0
2016-12-19T05:33:40.957Z,0
2016-12-19T05:34:49.645Z,0
2016-12-19T05:35:58.337Z,0
2016-12-19T05:37:07.339Z,0
2016-12-19T05:38:16.702Z,0
2016-12-19T05:39:25.697Z,0
2016-12-19T05:40:34.695Z,0
2016-12-19T05:41:43.693Z,0
2016-12-19T05:42:52.381Z,0
2016-12-19T05:44:01.484Z,0
2016-12-19T05:45:10.174Z,0
2016-12-19T05:46:18.866Z,0
2016-12-19T05:47:27.562Z,0
2016-12-19T05:48:37.166Z,0
2016-12-19T05:49:46.164Z,0
2016-12-19T05:50:55.472Z,0
2016-12-19T05:52:04.165Z,0
2016-12-19T05:53:13.164Z,0
2016-12-19T05:54:22.176Z,0
2016-12-19T05:55:31.315Z,0
2016-12-19T05:56:40.307Z,0
2016-12-19T05:57:49.299Z,0
2016-12-19T05:58:58.599Z,0
2016-12-19T06:00:07.917Z,0
2016-12-19T06:01:17.060Z,0
2016-12-19T06:02:26.362Z,0
2016-12-19T06:03:35.421Z,0
2016-12-19T06:04:44.118Z,0
2016-12-19T06:05:53.726Z,0
2016-12-19T06:07:02.724Z,0
2016-12-19T06:08:12.048Z,0
2016-12-19T06:09:21.359Z,0
2016-12-19T06:10:30.664Z,0
2016-12-19T06:11:39.672Z,0
2016-12-19T06:12:49.332Z,0
2016-12-19T06:13:58.340Z,4
2016-12-19T06:15:07.348Z,4
2016-12-19T06:16:16.071Z,4
2016-12-19T06:17:25.074Z,4
2016-12-19T06:18:34.236Z,4
2016-12-19T06:19:43.560Z,4
2016-12-19T06:20:52.643Z,4
2016-12-19T06:22:01.655Z,4
2016-12-19T06:23:10.671Z,4
2016-12-19T06:24:20.313Z,4
2016-12-19T06:25:28.998Z,4
2016-12-19T06:26:38.013Z,4
2016-12-19T06:27:47.030Z,4
2016-12-19T06:28:55.735Z,4
2016-12-19T06:30:04.791Z,4
2016-12-19T06:31:13.803Z,4
2016-12-19T06:32:23.106Z,4
2016-12-19T06:33:31.855Z,4
2016-12-19T06:34:40.853Z,4
2016-12-19T06:35:49.852Z,4
2016-12-19T06:36:58.852Z,4
2016-12-19T06:38:07.545Z,4
2016-12-19T06:39:16.544Z,4
2016-12-19T06:40:26.161Z,4
2016-12-19T06:41:34.856Z,4
2016-12-19T06:42:43.570Z,4
2016-12-19T06:43:52.275Z,4
2016-12-19T06:45:02.204Z,4
2016-12-19T06:46:11.526Z,4
2016-12-19T06:47:20.230Z,4
2016-12-19T06:48:29.242Z,4
2016-12-19T06:49:37.932Z,4
2016-12-19T06:50:46.671Z,4
2016-12-19T06:51:55.380Z,4
2016-12-19T06:53:04.462Z,4
2016-12-19T06:54:13.463Z,4
2016-12-19T06:55:22.463Z,4
2016-12-19T06:56:31.767Z,4
2016-12-19T06:57:40.768Z,4
2016-12-19T06:58:49.962Z,8
2016-12-19T06:59:59.002Z,4
2016-12-19T07:01:08.007Z,4
2016-12-19T07:02:16.699Z,4
2016-12-19T07:03:25.708Z,4
2016-12-19T07:04:34.403Z,4
2016-12-19T07:05:43.755Z,4
2016-12-19T07:06:52.467Z,4
2016-12-19T07:08:01.156Z,8
2016-12-19T07:09:10.160Z,4
2016-12-19T07:10:19.151Z,4
2016-12-19T07:11:28.147Z,8
2016-12-19T07:12:36.837Z,8
2016-12-19T07:13:45.547Z,4
2016-12-19T07:14:54.840Z,8
2016-12-19T07:16:03.891Z,8
2016-12-19T07:17:12.877Z,8
2016-12-19T07:18:21.892Z,8
2016-12-19T07:19:31.194Z,12
2016-12-19T07:20:40.193Z,12
2016-12-19T07:21:49.307Z,12
2016-12-19T07:22:57.990Z,12
2016-12-19T07:24:06.984Z,12
2016-12-19T07:25:15.988Z,12
2016-12-19T07:26:25.349Z,12
2016-12-19T07:27:35.710Z,16
2016-12-19T07:28:44.715Z,20
2016-12-19T07:29:53.720Z,20
2016-12-19T07:31:02.711Z,24
2016-12-19T07:32:12.021Z,28
2016-12-19T07:33:20.867Z,32
2016-12-19T07:34:30.176Z,36
2016-12-19T07:35:39.493Z,36
2016-12-19T07:36:48.495Z,40
2016-12-19T07:37:57.187Z,52
2016-12-19T07:39:06.192Z,52
2016-12-19T07:40:15.194Z,60
2016-12-19T07:41:23.892Z,64
2016-12-19T07:42:32.909Z,72
2016-12-19T07:43:41.599Z,88
2016-12-19T07:44:50.291Z,96
2016-12-19T07:45:58.987Z,100
2016-12-19T07:47:07.981Z,108
2016-12-19T07:48:17.290Z,116
2016-12-19T07:49:26.585Z,120
2016-12-19T07:50:36.327Z,124
2016-12-19T07:51:45.329Z,136
2016-12-19T07:52:54.328Z,144
2016-12-19T07:54:03.635Z,152
2016-12-19T07:55:12.953Z,156
2016-12-19T07:56:22.058Z,164
2016-12-19T07:57:31.095Z,172
2016-12-19T07:58:40.718Z,176
2016-12-19T07:59:49.719Z,180
2016-12-19T08:00:58.735Z,188
2016-12-19T08:02:07.734Z,184
2016-12-19T08:03:16.730Z,180
2016-12-19T08:04:25.425Z,188
2016-12-19T08:05:35.062Z,192
2016-12-19T08:06:44.379Z,200
2016-12-19T08:07:53.077Z,204
2016-12-19T08:09:01.790Z,212
2016-12-19T08:10:10.796Z,216
2016-12-19T08:11:19.503Z,220
2016-12-19T08:12:28.208Z,228
2016-12-19T08:13:37.520Z,228
2016-12-19T08:14:46.217Z,236
2016-12-19T08:15:55.214Z,240
2016-12-19T08:17:04.217Z,244
2016-12-19T08:18:13.218Z,248
2016-12-19T08:19:23.282Z,252
2016-12-19T08:20:32.333Z,256
2016-12-19T08:21:41.337Z,260
2016-12-19T08:22:50.028Z,264
2016-12-19T08:23:59.022Z,268
2016-12-19T08:25:07.806Z,272
2016-12-19T08:26:16.488Z,272
2016-12-19T08:27:25.795Z,280
2016-12-19T08:28:34.849Z,284
2016-12-19T08:29:43.885Z,288
2016-12-19T08:30:52.892Z,288
2016-12-19T08:32:01.904Z,292
2016-12-19T08:33:11.223Z,296
2016-12-19T08:34:19.948Z,304
2016-12-19T08:35:28.939Z,304
2016-12-19T08:36:38.699Z,312
2016-12-19T08:37:48.024Z,316
2016-12-19T08:38:57.338Z,320
2016-12-19T08:40:06.572Z,320
2016-12-19T08:41:15.269Z,328
2016-12-19T08:42:25.043Z,332
2016-12-19T08:43:34.345Z,332
2016-12-19T08:44:43.983Z,336
2016-12-19T08:45:52.987Z,336
2016-12-19T08:47:02.296Z,336
2016-12-19T08:48:11.450Z,340
2016-12-19T08:49:20.439Z,340
2016-12-19T08:50:29.750Z,340
2016-12-19T08:51:39.056Z,344
2016-12-19T08:52:48.064Z,348
2016-12-19T08:53:57.228Z,352
2016-12-19T08:55:05.923Z,356
2016-12-19T08:56:15.242Z,356
2016-12-19T08:57:24.574Z,360
2016-12-19T08:58:33.563Z,364
2016-12-19T08:59:42.760Z,364
2016-12-19T09:00:51.756Z,368
2016-12-19T09:02:00.445Z,368
2016-12-19T09:03:10.365Z,364
2016-12-19T09:04:19.676Z,360
2016-12-19T09:05:29.340Z,344
2016-12-19T09:06:38.037Z,356
2016-12-19T09:07:46.746Z,376
2016-12-19T09:08:55.748Z,432
2016-12-19T09:10:05.053Z,484
2016-12-19T09:11:14.105Z,576
2016-12-19T09:12:22.805Z,544
2016-12-19T09:13:51.620Z,616
2016-12-19T09:15:00.931Z,656
2016-12-19T09:16:09.931Z,696
2016-12-19T09:17:18.941Z,468
2016-12-19T09:18:28.260Z,396
2016-12-19T09:19:37.250Z,392
2016-12-19T09:20:46.548Z,392
2016-12-19T09:21:55.543Z,392
2016-12-19T09:23:04.853Z,388
2016-12-19T09:24:13.911Z,388
2016-12-19T09:25:22.900Z,392
2016-12-19T09:26:31.586Z,388
2016-12-19T09:27:40.597Z,388
2016-12-19T09:28:49.598Z,388
2016-12-19T09:29:58.325Z,388
2016-12-19T09:31:07.336Z,392
2016-12-19T09:32:16.029Z,396
2016-12-19T09:33:25.340Z,396
2016-12-19T09:34:34.021Z,396
2016-12-19T09:35:43.010Z,396
2016-12-19T09:36:51.996Z,396
2016-12-19T09:38:00.681Z,396
2016-12-19T09:39:10.287Z,396
2016-12-19T09:40:19.282Z,392
2016-12-19T09:41:28.304Z,388
2016-12-19T09:42:37.606Z,392
2016-12-19T09:43:46.613Z,392
2016-12-19T09:44:55.621Z,388
2016-12-19T09:46:04.314Z,392
2016-12-19T09:47:13.305Z,392
2016-12-19T09:48:22.323Z,392
2016-12-19T09:49:31.320Z,392
2016-12-19T09:50:40.321Z,396
2016-12-19T09:51:49.317Z,392
2016-12-19T09:52:58.621Z,392
2016-12-19T09:54:07.934Z,396
2016-12-19T09:55:17.242Z,392
2016-12-19T09:56:26.244Z,392
2016-12-19T09:57:35.265Z,392
2016-12-19T09:58:44.017Z,392
2016-12-19T09:59:52.715Z,392
2016-12-19T10:01:01.708Z,396
2016-12-19T10:02:11.316Z,396
2016-12-19T10:03:20.311Z,392
2016-12-19T10:04:29.312Z,400
2016-12-19T10:05:38.318Z,396
2016-12-19T10:06:47.314Z,400
2016-12-19T10:07:56.619Z,404
2016-12-19T10:09:06.248Z,404
2016-12-19T10:10:15.558Z,408
2016-12-19T10:11:24.574Z,408
2016-12-19T10:12:33.253Z,408
2016-12-19T10:13:41.953Z,408
2016-12-19T10:14:50.945Z,416
2016-12-19T10:15:59.963Z,416
2016-12-19T10:17:08.652Z,416
2016-12-19T10:18:17.676Z,416
2016-12-19T10:19:26.670Z,420
2016-12-19T10:20:35.669Z,416
2016-12-19T10:21:44.360Z,420
2016-12-19T10:22:53.357Z,424
2016-12-19T10:24:02.660Z,420
2016-12-19T10:25:11.962Z,420
2016-12-19T10:26:20.963Z,424
2016-12-19T10:27:30.307Z,428
2016-12-19T10:28:39.306Z,428
2016-12-19T10:29:48.309Z,428
2016-12-19T10:30:58.026Z,424
2016-12-19T10:32:07.631Z,428
2016-12-19T10:33:16.635Z,428
2016-12-19T10:34:25.625Z,432
2016-12-19T10:35:35.543Z,432
2016-12-19T10:36:44.237Z,432
2016-12-19T10:37:53.231Z,428
2016-12-19T10:39:02.555Z,432
2016-12-19T10:40:11.551Z,436
2016-12-19T10:41:20.547Z,432
2016-12-19T10:42:29.550Z,436
2016-12-19T10:43:38.242Z,432
2016-12-19T10:44:47.556Z,432
2016-12-19T10:45:56.248Z,436
2016-12-19T10:47:05.248Z,436
2016-12-19T10:48:14.548Z,436
2016-12-19T10:49:23.555Z,436
2016-12-19T10:50:32.861Z,440
2016-12-19T10:51:41.861Z,436
2016-12-19T10:52:51.040Z,440
2016-12-19T10:54:00.360Z,436
2016-12-19T10:55:09.043Z,440
2016-12-19T10:56:17.720Z,444
2016-12-19T10:57:26.708Z,448
2016-12-19T10:58:35.700Z,448
2016-12-19T10:59:45.003Z,452
2016-12-19T11:00:54.622Z,452
2016-12-19T11:02:03.308Z,448
2016-12-19T11:03:12.317Z,452
2016-12-19T11:04:21.625Z,448
2016-12-19T11:05:30.610Z,448
2016-12-19T11:06:39.907Z,444
2016-12-19T11:07:48.897Z,444
2016-12-19T11:08:57.586Z,472
2016-12-19T11:10:06.910Z,512
2016-12-19T11:11:15.602Z,524
2016-12-19T11:12:24.603Z,464
2016-12-19T11:13:33.293Z,464
2016-12-19T11:14:42.907Z,468
2016-12-19T11:15:51.603Z,500
2016-12-19T11:17:01.212Z,492
2016-12-19T11:18:10.206Z,508
2016-12-19T11:19:19.814Z,588
2016-12-19T11:20:28.499Z,632
2016-12-19T11:21:37.807Z,632
2016-12-19T11:22:46.501Z,604
2016-12-19T11:23:55.505Z,704
2016-12-19T11:25:04.194Z,688
2016-12-19T11:26:13.047Z,684
2016-12-19T11:27:22.391Z,664
2016-12-19T11:28:31.106Z,728
2016-12-19T11:29:40.399Z,772
2016-12-19T11:30:49.082Z,684
2016-12-19T11:31:58.380Z,656
2016-12-19T11:33:07.065Z,648
2016-12-19T11:34:16.054Z,676
2016-12-19T11:35:25.064Z,716
2016-12-19T11:36:33.764Z,712
2016-12-19T11:37:42.457Z,700
2016-12-19T11:38:51.454Z,660
2016-12-19T11:40:00.453Z,716
2016-12-19T11:41:10.058Z,728
2016-12-19T11:42:18.750Z,692
2016-12-19T11:43:27.445Z,712
2016-12-19T11:44:37.054Z,724
2016-12-19T11:45:46.088Z,684
2016-12-19T11:46:55.092Z,612
2016-12-19T11:48:04.420Z,616
2016-12-19T11:49:13.727Z,600
2016-12-19T11:50:22.729Z,584
2016-12-19T11:51:31.428Z,456
2016-12-19T11:52:40.422Z,408
2016-12-19T11:53:49.439Z,420
2016-12-19T11:54:58.741Z,432
2016-12-19T11:56:07.732Z,452
2016-12-19T11:57:17.123Z,420
2016-12-19T11:58:26.115Z,396
2016-12-19T11:59:35.105Z,400
2016-12-19T12:00:44.410Z,408
2016-12-19T12:01:53.388Z,424
2016-12-19T12:03:02.415Z,460
2016-12-19T12:04:11.093Z,496
2016-12-19T12:05:20.121Z,448
2016-12-19T12:06:28.804Z,472
2016-12-19T12:07:37.809Z,544
2016-12-19T12:08:46.804Z,540
2016-12-19T12:09:55.797Z,536
2016-12-19T12:11:04.797Z,588
2016-12-19T12:12:13.794Z,596
2016-12-19T12:13:22.482Z,580
2016-12-19T12:14:31.171Z,524
2016-12-19T12:15:40.475Z,524
2016-12-19T12:16:49.200Z,540
2016-12-19T12:17:57.903Z,492
2016-12-19T12:19:06.615Z,484
2016-12-19T12:20:16.244Z,504
2016-12-19T12:21:25.555Z,508
2016-12-19T12:22:34.281Z,544
2016-12-19T12:23:43.007Z,564
2016-12-19T12:24:52.005Z,548
2016-12-19T12:26:01.022Z,516
2016-12-19T12:27:10.324Z,504
2016-12-19T12:28:19.619Z,496
2016-12-19T12:29:28.603Z,532
2016-12-19T12:30:37.294Z,532
2016-12-19T12:31:45.986Z,560
2016-12-19T12:32:54.662Z,572
2016-12-19T12:34:03.958Z,532
2016-12-19T12:35:13.253Z,504
2016-12-19T12:36:21.942Z,512
2016-12-19T12:37:31.261Z,524
2016-12-19T12:38:40.242Z,476
2016-12-19T12:39:49.546Z,508
2016-12-19T12:40:58.235Z,568
2016-12-19T12:42:07.237Z,644
2016-12-19T12:43:16.235Z,684
2016-12-19T12:44:25.532Z,660
2016-12-19T12:45:34.821Z,556
2016-12-19T12:46:44.429Z,528
2016-12-19T12:47:53.727Z,568
2016-12-19T12:49:02.451Z,608
2016-12-19T12:50:12.063Z,596
2016-12-19T12:51:20.750Z,600
2016-12-19T12:52:29.435Z,524
2016-12-19T12:53:38.427Z,492
2016-12-19T12:54:48.025Z,516
2016-12-19T12:55:57.026Z,536
2016-12-19T12:57:06.057Z,520
2016-12-19T12:58:15.351Z,460
2016-12-19T12:59:24.040Z,444
2016-12-19T13:00:33.026Z,488
2016-12-19T13:01:42.030Z,492
2016-12-19T13:02:50.715Z,456
2016-12-19T13:04:00.014Z,496
2016-12-19T13:05:08.702Z,512
2016-12-19T13:06:17.703Z,536
2016-12-19T13:07:26.695Z,524
2016-12-19T13:08:36.606Z,464
2016-12-19T13:09:45.609Z,424
2016-12-19T13:10:54.906Z,416
2016-12-19T13:12:03.627Z,404
2016-12-19T13:13:12.932Z,400
2016-12-19T13:14:21.928Z,372
2016-12-19T13:15:30.919Z,356
2016-12-19T13:16:39.614Z,364
2016-12-19T13:17:48.602Z,384
2016-12-19T13:18:58.203Z,408
2016-12-19T13:20:07.198Z,496
2016-12-19T13:21:15.883Z,508
2016-12-19T13:22:24.869Z,444
2016-12-19T13:23:33.560Z,448
2016-12-19T13:24:42.254Z,472
2016-12-19T13:25:50.941Z,444
2016-12-19T13:27:00.839Z,392
2016-12-19T13:28:10.135Z,396
2016-12-19T13:29:19.444Z,404
2016-12-19T13:30:28.445Z,380
2016-12-19T13:31:37.751Z,344
2016-12-19T13:32:47.055Z,332
2016-12-19T13:33:56.668Z,308
2016-12-19T13:35:05.358Z,312
2016-12-19T13:36:14.359Z,320
2016-12-19T13:37:23.350Z,304
2016-12-19T13:38:32.645Z,292
2016-12-19T13:39:41.639Z,288
2016-12-19T13:40:50.630Z,312
2016-12-19T13:41:59.341Z,364
2016-12-19T13:43:08.023Z,376
2016-12-19T13:44:17.021Z,384
2016-12-19T13:45:26.012Z,420
2016-12-19T13:46:36.908Z,408
2016-12-19T13:47:45.609Z,408
2016-12-19T13:48:54.596Z,392
2016-12-19T13:50:03.964Z,364
2016-12-19T13:51:12.948Z,356
2016-12-19T13:52:21.635Z,364
2016-12-19T13:53:30.625Z,404
2016-12-19T13:54:39.315Z,400
2016-12-19T13:55:48.321Z,392
2016-12-19T13:56:57.309Z,396
2016-12-19T13:58:06.948Z,368
2016-12-19T13:59:15.939Z,364
2016-12-19T14:00:25.234Z,352
2016-12-19T14:01:34.521Z,340
2016-12-19T14:02:43.206Z,340
2016-12-19T14:03:52.493Z,312
2016-12-19T14:05:01.189Z,292
2016-12-19T14:06:09.870Z,272
2016-12-19T14:07:19.506Z,264
2016-12-19T14:08:28.818Z,284
2016-12-19T14:09:37.517Z,304
2016-12-19T14:10:46.836Z,280
2016-12-19T14:11:56.132Z,268
2016-12-19T14:13:05.161Z,280
2016-12-19T14:14:14.465Z,264
2016-12-19T14:15:23.771Z,248
2016-12-19T14:16:33.064Z,240
2016-12-19T14:17:42.094Z,244
2016-12-19T14:18:51.086Z,240
2016-12-19T14:20:00.092Z,248
2016-12-19T14:21:08.778Z,264
2016-12-19T14:22:18.081Z,256
2016-12-19T14:23:27.410Z,260
2016-12-19T14:24:37.015Z,264
2016-12-19T14:25:46.027Z,272
2016-12-19T14:26:55.635Z,252
2016-12-19T14:28:04.954Z,256
2016-12-19T14:29:13.951Z,272
2016-12-19T14:30:23.562Z,244
2016-12-19T14:31:32.254Z,236
2016-12-19T14:32:40.953Z,232
2016-12-19T14:33:49.950Z,224
2016-12-19T14:34:59.249Z,212
2016-12-19T14:36:46.307Z,192
2016-12-19T14:37:55.011Z,188
2016-12-19T14:39:04.628Z,184
2016-12-19T14:40:13.622Z,180
2016-12-19T14:41:22.610Z,180
2016-12-19T14:42:31.917Z,172
2016-12-19T14:43:40.905Z,148
2016-12-19T14:44:50.205Z,132
2016-12-19T14:45:59.196Z,128
2016-12-19T14:47:07.911Z,124
2016-12-19T14:48:16.895Z,120
2016-12-19T14:49:25.887Z,120
2016-12-19T14:50:34.572Z,116
2016-12-19T14:51:43.875Z,108
2016-12-19T14:52:52.877Z,104
2016-12-19T14:54:01.887Z,96
2016-12-19T14:55:10.563Z,92
2016-12-19T14:56:19.271Z,96
2016-12-19T14:57:28.277Z,96
2016-12-19T14:58:37.879Z,96
2016-12-19T14:59:47.196Z,96
2016-12-19T15:00:56.808Z,88
2016-12-19T15:02:06.415Z,72
2016-12-19T15:03:16.017Z,68
2016-12-19T15:04:24.704Z,64
2016-12-19T15:05:33.382Z,68
2016-12-19T15:06:42.076Z,56
2016-12-19T15:07:51.373Z,52
2016-12-19T15:09:00.371Z,44
2016-12-19T15:10:09.358Z,48
2016-12-19T15:11:18.656Z,44
2016-12-19T15:12:27.653Z,40
2016-12-19T15:13:36.649Z,36
2016-12-19T15:14:45.952Z,32
2016-12-19T15:15:55.254Z,28
2016-12-19T15:17:04.242Z,24
2016-12-19T15:18:13.543Z,24
2016-12-19T15:19:22.559Z,28
2016-12-19T15:20:31.549Z,32
2016-12-19T15:21:40.859Z,28
2016-12-19T15:22:50.781Z,28
2016-12-19T15:23:59.783Z,28
2016-12-19T15:25:08.469Z,28
2016-12-19T15:26:17.182Z,24
2016-12-19T15:27:25.881Z,20
2016-12-19T15:28:34.881Z,20
2016-12-19T15:29:43.876Z,16
2016-12-19T15:30:52.882Z,16
2016-12-19T15:32:01.902Z,16
2016-12-19T15:33:10.597Z,12
2016-12-19T15:34:19.638Z,12
2016-12-19T15:35:28.649Z,12
2016-12-19T15:36:37.627Z,12
2016-12-19T15:37:46.615Z,4
2016-12-19T15:38:55.601Z,8
2016-12-19T15:40:04.274Z,4
2016-12-19T15:41:13.268Z,4
2016-12-19T15:42:21.959Z,4
2016-12-19T15:43:30.942Z,4
2016-12-19T15:44:39.930Z,4
2016-12-19T15:45:49.842Z,0
2016-12-19T15:46:58.535Z,4
2016-12-19T15:48:08.144Z,4
2016-12-19T15:49:17.159Z,4
2016-12-19T15:50:26.149Z,0
2016-12-19T15:51:35.135Z,0
2016-12-19T15:52:44.122Z,0
2016-12-19T15:53:53.723Z,0
2016-12-19T15:55:02.402Z,0
2016-12-19T15:56:11.698Z,0
2016-12-19T15:57:21.021Z,0
2016-12-19T15:58:30.030Z,0
2016-12-19T15:59:39.034Z,0
2016-12-19T16:00:48.640Z,0
2016-12-19T16:01:57.949Z,0
2016-12-19T16:03:07.559Z,0
2016-12-19T16:04:16.558Z,0
2016-12-19T16:05:25.249Z,0
2016-12-19T16:06:34.244Z,0
2016-12-19T16:07:43.228Z,0
2016-12-19T16:08:52.583Z,0
2016-12-19T16:10:01.586Z,0
2016-12-19T16:11:10.285Z,0
2016-12-19T16:12:19.583Z,0
2016-12-19T16:13:28.274Z,0
2016-12-19T16:14:36.979Z,0
2016-12-19T16:15:45.980Z,0
2016-12-19T16:16:54.994Z,0
2016-12-19T16:18:04.016Z,0
2016-12-19T16:19:13.012Z,0
2016-12-19T16:20:22.316Z,0
2016-12-19T16:21:31.350Z,0
2016-12-19T16:22:40.647Z,0
2016-12-19T16:23:49.655Z,0
2016-12-19T16:24:59.040Z,0
2016-12-19T16:26:08.053Z,0
2016-12-19T16:27:17.678Z,0
2016-12-19T16:28:26.368Z,0